Time,TemperatureF,DewpointF,PressureIn,WindDirection,WindDirectionDegrees,WindSpeedMPH,WindSpeedGustMPH,Humidity,HourlyPrecipIn,Conditions,Clouds,dailyrainin,SoftwareType,DateUTC
2013-02-07 00:02:00,20.8,16.2,29.30,NE,45,0.0,0.0,82,0.00,,,0.00,WUHU21623XXSP,2013-02-07 06:02:00,
2013-02-07 00:07:00,21.0,16.3,29.31,NE,45,0.0,0.0,82,0.00,,,0.00,WUHU21623XXSP,2013-02-07 06:07:00,
2013-02-07 00:12:00,20.8,16.2,29.30,NE,45,0.0,0.0,82,0.00,,,0.00,WUHU21623XXSP,2013-02-07 06:12:00,
2013-02-07 00:17:00,20.7,16.0,29.30,NE,45,0.0,0.0,82,0.00,,,0.00,WUHU21623XXSP,2013-02-07 06:17:00,
2013-02-07 00:22:00,20.8,16.2,29.31,NE,45,0.0,0.0,83,0.00,,,0.00,WUHU21623XXSP,2013-02-07 06:22:00,
2013-02-07 00:27:00,20.8,16.4,29.30,NE,45,0.0,0.0,83,0.00,,,0.00,WUHU21623XXSP,2013-02-07 06:27:00,
2013-02-07 00:32:00,21.0,16.6,29.30,NE,45,0.0,0.0,83,0.00,,,0.00,WUHU21623XXSP,2013-02-07 06:32:00,
2013-02-07 00:37:00,21.0,16.6,29.31,NE,45,0.0,0.0,83,0.00,,,0.00,WUHU21623XXSP,2013-02-07 06:37:00,
2013-02-07 00:42:00,20.8,16.6,29.31,NE,45,0.0,0.0,83,0.00,,,0.00,WUHU21623XXSP,2013-02-07 06:42:00,
2013-02-07 00:47:00,20.8,16.7,29.30,NE,45,0.0,0.0,84,0.00,,,0.00,WUHU21623XXSP,2013-02-07 06:47:00,
2013-02-07 00:52:00,20.5,16.3,29.31,NE,45,0.0,0.0,84,0.00,,,0.00,WUHU21623XXSP,2013-02-07 06:52:00,
2013-02-07 00:57:00,20.5,16.3,29.31,NE,45,0.0,0.0,84,0.00,,,0.00,WUHU21623XXSP,2013-02-07 06:57:00,
2013-02-07 01:02:00,20.5,16.3,29.31,NE,45,0.0,0.0,84,0.00,,,0.00,WUHU21623XXSP,2013-02-07 07:02:00,
2013-02-07 01:07:00,20.5,16.3,29.31,NE,45,0.0,0.0,84,0.00,,,0.00,WUHU21623XXSP,2013-02-07 07:07:00,
2013-02-07 01:12:00,20.5,16.1,29.31,NE,45,0.0,0.0,83,0.00,,,0.00,WUHU21623XXSP,2013-02-07 07:12:00,
2013-02-07 01:17:00,20.8,16.3,29.31,NE,45,0.0,0.0,84,0.00,,,0.00,WUHU21623XXSP,2013-02-07 07:17:00,
2013-02-07 01:22:00,20.8,16.7,29.31,NE,45,0.0,0.0,84,0.00,,,0.00,WUHU21623XXSP,2013-02-07 07:22:00,
2013-02-07 01:28:00,21.0,16.7,29.32,NE,45,0.0,0.0,84,0.00,,,0.00,WUHU21623XXSP,2013-02-07 07:28:00,
2013-02-07 01:33:00,21.0,16.9,29.31,NE,45,0.0,0.0,84,0.00,,,0.00,WUHU21623XXSP,2013-02-07 07:33:00,
2013-02-07 01:38:00,21.0,16.9,29.31,NE,45,0.0,0.0,84,0.00,,,0.00,WUHU21623XXSP,2013-02-07 07:38:00,
2013-02-07 01:43:00,20.8,16.7,29.31,NE,45,0.0,0.0,84,0.00,,,0.00,WUHU21623XXSP,2013-02-07 07:43:00,
2013-02-07 01:48:00,20.8,16.7,29.31,NE,45,0.0,0.0,84,0.00,,,0.00,WUHU21623XXSP,2013-02-07 07:48:00,
2013-02-07 01:53:00,20.8,16.7,29.32,NE,45,0.0,0.0,84,0.00,,,0.00,WUHU21623XXSP,2013-02-07 07:53:00,
2013-02-07 01:58:00,20.8,16.7,29.32,NE,45,0.0,0.0,84,0.00,,,0.00,WUHU21623XXSP,2013-02-07 07:58:00,
2013-02-07 02:03:00,20.8,16.7,29.32,NE,45,0.0,0.0,84,0.00,,,0.00,WUHU21623XXSP,2013-02-07 08:03:00,
2013-02-07 02:08:00,20.8,16.7,29.32,NE,45,0.0,0.0,84,0.00,,,0.00,WUHU21623XXSP,2013-02-07 08:08:00,
2013-02-07 02:13:00,20.8,16.5,29.32,NE,45,0.0,0.0,84,0.00,,,0.00,WUHU21623XXSP,2013-02-07 08:13:00,
2013-02-07 02:18:00,20.8,16.7,29.32,NE,45,0.0,0.0,84,0.00,,,0.00,WUHU21623XXSP,2013-02-07 08:18:00,
2013-02-07 02:23:00,20.8,16.7,29.33,NE,45,0.0,0.0,84,0.00,,,0.00,WUHU21623XXSP,2013-02-07 08:23:00,
2013-02-07 02:28:00,20.8,16.7,29.33,NE,45,0.0,0.0,84,0.00,,,0.00,WUHU21623XXSP,2013-02-07 08:28:00,
2013-02-07 02:33:00,20.5,16.3,29.33,NE,45,0.0,0.0,84,0.00,,,0.00,WUHU21623XXSP,2013-02-07 08:33:00,
2013-02-07 02:38:00,20.3,16.2,29.33,NE,45,0.0,0.0,84,0.00,,,0.00,WUHU21623XXSP,2013-02-07 08:38:00,
2013-02-07 02:43:00,20.3,16.2,29.33,NE,45,0.0,0.0,84,0.00,,,0.00,WUHU21623XXSP,2013-02-07 08:43:00,
2013-02-07 02:48:00,20.5,16.6,29.33,NE,45,0.0,0.0,85,0.00,,,0.00,WUHU21623XXSP,2013-02-07 08:48:00,
2013-02-07 02:53:00,20.8,17.0,29.33,NE,45,0.0,0.0,85,0.00,,,0.00,WUHU21623XXSP,2013-02-07 08:53:00,
2013-02-07 02:59:00,21.0,17.1,29.33,NE,45,0.0,0.0,85,0.00,,,0.00,WUHU21623XXSP,2013-02-07 08:59:00,
2013-02-07 03:04:00,21.4,17.5,29.33,NE,45,0.0,0.0,85,0.00,,,0.00,WUHU21623XXSP,2013-02-07 09:04:00,
2013-02-07 03:09:00,21.7,17.9,29.33,NE,45,0.0,0.0,85,0.00,,,0.00,WUHU21623XXSP,2013-02-07 09:09:00,
2013-02-07 03:14:00,21.9,18.0,29.33,NE,45,0.0,0.0,85,0.00,,,0.00,WUHU21623XXSP,2013-02-07 09:14:00,
2013-02-07 03:19:00,22.1,18.2,29.33,NE,45,0.0,0.0,85,0.00,,,0.00,WUHU21623XXSP,2013-02-07 09:19:00,
2013-02-07 03:24:00,22.3,18.4,29.33,NE,45,0.0,0.0,85,0.00,,,0.00,WUHU21623XXSP,2013-02-07 09:24:00,
2013-02-07 03:29:00,22.6,18.6,29.33,NE,45,0.0,0.0,85,0.00,,,0.00,WUHU21623XXSP,2013-02-07 09:29:00,
2013-02-07 03:34:00,22.8,18.8,29.33,NE,45,0.0,0.0,85,0.00,,,0.00,WUHU21623XXSP,2013-02-07 09:34:00,
2013-02-07 03:39:00,22.8,18.9,29.33,NE,45,0.0,0.0,85,0.00,,,0.00,WUHU21623XXSP,2013-02-07 09:39:00,
2013-02-07 03:44:00,23.0,19.1,29.33,NE,45,0.0,0.0,85,0.00,,,0.00,WUHU21623XXSP,2013-02-07 09:44:00,
2013-02-07 03:49:00,23.2,19.3,29.33,NE,45,0.0,5.6,85,0.00,,,0.00,WUHU21623XXSP,2013-02-07 09:49:00,
2013-02-07 03:54:00,23.4,19.5,29.33,NE,45,0.0,5.6,85,0.00,,,0.00,WUHU21623XXSP,2013-02-07 09:54:00,
2013-02-07 03:59:00,23.4,19.5,29.33,NE,45,0.0,0.0,85,0.00,,,0.00,WUHU21623XXSP,2013-02-07 09:59:00,
2013-02-07 04:04:00,23.5,19.7,29.33,NE,45,0.0,0.0,85,0.00,,,0.00,WUHU21623XXSP,2013-02-07 10:04:00,
2013-02-07 04:09:00,23.7,20.1,29.33,NE,45,0.0,0.0,86,0.00,,,0.00,WUHU21623XXSP,2013-02-07 10:09:00,
2013-02-07 04:14:00,23.9,20.3,29.33,NE,45,0.0,0.0,86,0.00,,,0.00,WUHU21623XXSP,2013-02-07 10:14:00,
2013-02-07 04:19:00,24.1,20.5,29.34,NE,45,0.0,0.0,86,0.00,,,0.00,WUHU21623XXSP,2013-02-07 10:19:00,
2013-02-07 04:24:00,24.4,20.8,29.33,NE,45,0.0,0.0,86,0.00,,,0.00,WUHU21623XXSP,2013-02-07 10:24:00,
2013-02-07 04:29:00,24.4,20.8,29.33,NE,45,0.0,0.0,86,0.00,,,0.00,WUHU21623XXSP,2013-02-07 10:29:00,
2013-02-07 04:34:00,24.6,21.0,29.34,NE,45,0.0,0.0,86,0.00,,,0.00,WUHU21623XXSP,2013-02-07 10:34:00,
2013-02-07 04:39:00,24.6,21.0,29.34,NE,45,0.0,0.0,86,0.00,,,0.00,WUHU21623XXSP,2013-02-07 10:39:00,
2013-02-07 04:44:00,25.0,21.4,29.34,NE,45,0.0,0.0,86,0.00,,,0.00,WUHU21623XXSP,2013-02-07 10:44:00,
2013-02-07 04:49:00,25.0,21.4,29.34,NE,45,0.0,0.0,86,0.00,,,0.00,WUHU21623XXSP,2013-02-07 10:49:00,
2013-02-07 04:54:00,25.0,21.4,29.34,NE,45,0.0,0.0,86,0.00,,,0.00,WUHU21623XXSP,2013-02-07 10:54:00,
2013-02-07 04:59:00,25.2,21.4,29.34,NE,45,0.0,0.0,86,0.00,,,0.00,WUHU21623XXSP,2013-02-07 10:59:00,
2013-02-07 05:04:00,25.3,21.7,29.34,NE,45,0.0,0.0,86,0.00,,,0.00,WUHU21623XXSP,2013-02-07 11:04:00,
2013-02-07 05:09:00,25.3,21.7,29.34,NE,45,0.0,0.0,86,0.00,,,0.00,WUHU21623XXSP,2013-02-07 11:09:00,
2013-02-07 05:14:00,25.3,21.7,29.34,NE,45,0.0,0.0,86,0.00,,,0.00,WUHU21623XXSP,2013-02-07 11:14:00,
2013-02-07 05:19:00,25.5,21.9,29.34,NE,45,0.0,0.0,86,0.00,,,0.00,WUHU21623XXSP,2013-02-07 11:19:00,
2013-02-07 05:24:00,25.5,21.9,29.34,NE,45,0.0,0.0,86,0.00,,,0.00,WUHU21623XXSP,2013-02-07 11:24:00,
2013-02-07 05:29:00,25.5,21.9,29.34,NE,45,0.0,0.0,86,0.00,,,0.00,WUHU21623XXSP,2013-02-07 11:29:00,
2013-02-07 05:34:00,25.5,21.9,29.34,NE,45,0.0,0.0,86,0.00,,,0.00,WUHU21623XXSP,2013-02-07 11:34:00,
2013-02-07 05:40:00,25.7,22.1,29.34,NE,45,0.0,0.0,86,0.00,,,0.00,WUHU21623XXSP,2013-02-07 11:40:00,
2013-02-07 05:45:00,25.7,22.1,29.34,NE,45,0.0,0.0,86,0.00,,,0.00,WUHU21623XXSP,2013-02-07 11:45:00,
2013-02-07 05:50:00,25.9,22.2,29.35,NNE,22,0.0,0.0,86,0.00,,,0.00,WUHU21623XXSP,2013-02-07 11:50:00,
2013-02-07 05:55:00,25.9,22.2,29.35,NNE,22,0.0,0.0,86,0.00,,,0.00,WUHU21623XXSP,2013-02-07 11:55:00,
2013-02-07 06:00:00,25.9,22.2,29.35,NE,45,0.0,0.0,86,0.00,,,0.00,WUHU21623XXSP,2013-02-07 12:00:00,
2013-02-07 06:05:00,25.9,22.2,29.35,NE,45,0.0,0.0,86,0.00,,,0.00,WUHU21623XXSP,2013-02-07 12:05:00,
2013-02-07 06:10:00,26.1,22.4,29.35,NE,45,0.0,0.0,86,0.00,,,0.00,WUHU21623XXSP,2013-02-07 12:10:00,
2013-02-07 06:15:00,26.1,22.4,29.35,NE,45,0.0,0.0,86,0.00,,,0.00,WUHU21623XXSP,2013-02-07 12:15:00,
2013-02-07 06:20:00,26.1,22.4,29.35,NE,45,0.0,0.0,86,0.00,,,0.00,WUHU21623XXSP,2013-02-07 12:20:00,
2013-02-07 06:25:00,26.1,22.4,29.35,NE,45,0.0,0.0,86,0.00,,,0.00,WUHU21623XXSP,2013-02-07 12:25:00,
2013-02-07 06:30:00,26.2,22.3,29.36,NE,45,0.0,0.0,85,0.00,,,0.00,WUHU21623XXSP,2013-02-07 12:30:00,
2013-02-07 06:35:00,26.2,22.3,29.36,NE,45,0.0,0.0,85,0.00,,,0.00,WUHU21623XXSP,2013-02-07 12:35:00,
2013-02-07 06:40:00,26.2,22.3,29.35,NE,45,0.0,0.0,85,0.00,,,0.00,WUHU21623XXSP,2013-02-07 12:40:00,
2013-02-07 06:45:00,26.2,22.3,29.36,NE,45,0.0,0.0,85,0.00,,,0.00,WUHU21623XXSP,2013-02-07 12:45:00,
2013-02-07 06:50:00,26.2,22.3,29.35,NE,45,0.0,0.0,85,0.00,,,0.00,WUHU21623XXSP,2013-02-07 12:50:00,
2013-02-07 06:55:00,26.2,22.3,29.35,NE,45,0.0,0.0,85,0.00,,,0.00,WUHU21623XXSP,2013-02-07 12:55:00,
2013-02-07 07:00:00,26.2,22.3,29.35,NE,45,0.0,0.0,85,0.00,,,0.00,WUHU21623XXSP,2013-02-07 13:00:00,
2013-02-07 07:05:00,26.2,22.3,29.35,ENE,67,0.0,0.0,85,0.00,,,0.00,WUHU21623XXSP,2013-02-07 13:05:00,
2013-02-07 07:10:00,26.2,22.3,29.35,NNE,22,0.0,0.0,85,0.00,,,0.00,WUHU21623XXSP,2013-02-07 13:10:00,
2013-02-07 07:15:00,26.2,22.3,29.35,ENE,67,0.0,0.0,85,0.00,,,0.00,WUHU21623XXSP,2013-02-07 13:15:00,
2013-02-07 07:20:00,26.1,21.8,29.36,NE,45,0.0,0.0,84,0.00,,,0.00,WUHU21623XXSP,2013-02-07 13:20:00,
2013-02-07 07:25:00,26.1,21.8,29.36,ENE,67,0.0,0.0,84,0.00,,,0.00,WUHU21623XXSP,2013-02-07 13:25:00,
2013-02-07 07:30:00,26.1,21.8,29.36,NE,45,0.0,0.0,84,0.00,,,0.00,WUHU21623XXSP,2013-02-07 13:30:00,
2013-02-07 07:36:00,25.9,21.7,29.36,NE,45,0.0,0.0,84,0.00,,,0.00,WUHU21623XXSP,2013-02-07 13:36:00,
2013-02-07 07:41:00,25.9,21.7,29.36,NE,45,0.0,0.0,84,0.00,,,0.00,WUHU21623XXSP,2013-02-07 13:41:00,
2013-02-07 07:46:00,25.9,22.0,29.37,NE,45,1.6,1.6,85,0.00,,,0.00,WUHU21623XXSP,2013-02-07 13:46:00,
2013-02-07 07:51:00,25.9,22.0,29.37,NE,45,0.0,1.6,85,0.00,,,0.00,WUHU21623XXSP,2013-02-07 13:51:00,
2013-02-07 07:56:00,25.9,22.0,29.37,NE,45,0.0,0.0,85,0.00,,,0.00,WUHU21623XXSP,2013-02-07 13:56:00,
2013-02-07 08:01:00,25.9,22.0,29.37,NE,45,0.0,0.2,85,0.00,,,0.00,WUHU21623XXSP,2013-02-07 14:01:00,
2013-02-07 08:06:00,25.7,21.8,29.37,NE,45,0.0,0.2,85,0.00,,,0.00,WUHU21623XXSP,2013-02-07 14:06:00,
2013-02-07 08:11:00,25.9,22.0,29.38,NE,45,0.0,0.0,85,0.00,,,0.00,WUHU21623XXSP,2013-02-07 14:11:00,
2013-02-07 08:16:00,25.9,22.0,29.38,NE,45,0.0,0.0,85,0.00,,,0.00,WUHU21623XXSP,2013-02-07 14:16:00,
2013-02-07 08:21:00,25.9,22.0,29.39,NE,45,0.0,0.0,85,0.00,,,0.00,WUHU21623XXSP,2013-02-07 14:21:00,
2013-02-07 08:26:00,26.1,22.1,29.39,NE,45,0.0,0.0,85,0.00,,,0.00,WUHU21623XXSP,2013-02-07 14:26:00,
2013-02-07 08:31:00,26.1,22.1,29.40,NE,45,0.0,0.0,85,0.00,,,0.00,WUHU21623XXSP,2013-02-07 14:31:00,
2013-02-07 08:36:00,26.1,22.1,29.40,NE,45,0.0,0.0,85,0.00,,,0.00,WUHU21623XXSP,2013-02-07 14:36:00,
2013-02-07 08:41:00,26.2,22.3,29.40,NNE,22,0.0,0.0,85,0.00,,,0.00,WUHU21623XXSP,2013-02-07 14:41:00,
2013-02-07 08:46:00,26.4,22.5,29.41,NE,45,0.0,0.0,85,0.00,,,0.00,WUHU21623XXSP,2013-02-07 14:46:00,
2013-02-07 08:51:00,26.4,22.5,29.41,NE,45,0.0,0.0,85,0.00,,,0.00,WUHU21623XXSP,2013-02-07 14:51:00,
2013-02-07 08:56:00,26.4,22.5,29.41,NE,45,0.0,0.0,85,0.00,,,0.00,WUHU21623XXSP,2013-02-07 14:56:00,
2013-02-07 09:01:00,26.4,22.5,29.41,NNE,22,0.0,0.0,85,0.00,,,0.00,WUHU21623XXSP,2013-02-07 15:01:00,
2013-02-07 09:06:00,26.4,22.5,29.41,NNE,22,0.0,0.0,85,0.00,,,0.00,WUHU21623XXSP,2013-02-07 15:06:00,
2013-02-07 09:11:00,26.4,22.5,29.41,NE,45,0.0,0.0,85,0.00,,,0.00,WUHU21623XXSP,2013-02-07 15:11:00,
2013-02-07 09:16:00,26.4,22.5,29.42,NE,45,0.0,0.0,85,0.00,,,0.00,WUHU21623XXSP,2013-02-07 15:16:00,
2013-02-07 09:22:00,26.8,22.8,29.41,NE,45,0.0,0.0,85,0.00,,,0.00,WUHU21623XXSP,2013-02-07 15:22:00,
2013-02-07 09:27:00,26.8,22.8,29.41,NE,45,0.0,0.0,85,0.00,,,0.00,WUHU21623XXSP,2013-02-07 15:27:00,
2013-02-07 09:32:00,26.8,22.8,29.41,NNE,22,2.2,2.9,85,0.00,,,0.00,WUHU21623XXSP,2013-02-07 15:32:00,
2013-02-07 09:37:00,26.8,22.8,29.41,NE,45,0.0,2.9,85,0.00,,,0.00,WUHU21623XXSP,2013-02-07 15:37:00,
2013-02-07 09:42:00,26.8,22.8,29.41,NE,45,0.0,2.2,85,0.00,,,0.00,WUHU21623XXSP,2013-02-07 15:42:00,
2013-02-07 09:47:00,26.8,22.8,29.42,NE,45,0.0,0.0,85,0.00,,,0.00,WUHU21623XXSP,2013-02-07 15:47:00,
2013-02-07 09:52:00,27.0,23.0,29.42,NE,45,0.0,0.0,85,0.00,,,0.00,WUHU21623XXSP,2013-02-07 15:52:00,
2013-02-07 09:57:00,27.1,23.2,29.41,NE,45,0.0,0.0,85,0.00,,,0.00,WUHU21623XXSP,2013-02-07 15:57:00,
2013-02-07 10:02:00,27.3,23.4,29.41,NE,45,0.0,0.0,85,0.00,,,0.00,WUHU21623XXSP,2013-02-07 16:02:00,
2013-02-07 10:07:00,27.1,22.9,29.41,NE,45,0.0,0.0,84,0.00,,,0.00,WUHU21623XXSP,2013-02-07 16:07:00,
2013-02-07 10:12:00,27.5,23.3,29.42,NE,45,0.0,0.0,84,0.00,,,0.00,WUHU21623XXSP,2013-02-07 16:12:00,
2013-02-07 10:17:00,27.5,23.3,29.42,NE,45,1.8,1.8,84,0.00,,,0.00,WUHU21623XXSP,2013-02-07 16:17:00,
2013-02-07 10:22:00,27.7,23.4,29.42,NE,45,0.0,1.8,84,0.00,,,0.00,WUHU21623XXSP,2013-02-07 16:22:00,
2013-02-07 10:27:00,27.7,23.1,29.42,NE,45,0.0,0.0,83,0.00,,,0.00,WUHU21623XXSP,2013-02-07 16:27:00,
2013-02-07 10:32:00,27.9,23.3,29.42,NE,45,1.8,1.8,83,0.00,,,0.00,WUHU21623XXSP,2013-02-07 16:32:00,
2013-02-07 10:37:00,28.0,23.5,29.42,NE,45,0.0,1.8,83,0.00,,,0.00,WUHU21623XXSP,2013-02-07 16:37:00,
2013-02-07 10:42:00,28.2,23.7,29.42,NNE,22,0.0,1.8,83,0.00,,,0.00,WUHU21623XXSP,2013-02-07 16:42:00,
2013-02-07 10:47:00,28.2,23.4,29.43,NNE,22,1.1,1.1,82,0.00,,,0.00,WUHU21623XXSP,2013-02-07 16:47:00,
2013-02-07 10:52:00,28.2,23.4,29.42,NE,45,0.0,1.1,82,0.00,,,0.00,WUHU21623XXSP,2013-02-07 16:52:00,
2013-02-07 10:57:00,28.2,23.4,29.43,NE,45,0.0,1.1,82,0.00,,,0.00,WUHU21623XXSP,2013-02-07 16:57:00,
2013-02-07 11:02:00,28.2,23.4,29.42,NE,45,2.2,2.2,82,0.00,,,0.00,WUHU21623XXSP,2013-02-07 17:02:00,
2013-02-07 11:08:00,28.6,23.8,29.42,NE,45,0.0,2.2,82,0.00,,,0.00,WUHU21623XXSP,2013-02-07 17:08:00,
2013-02-07 11:13:00,28.6,23.8,29.42,NE,45,0.0,0.0,82,0.00,,,0.00,WUHU21623XXSP,2013-02-07 17:13:00,
2013-02-07 11:18:00,28.6,23.8,29.42,NE,45,0.0,0.0,82,0.00,,,0.00,WUHU21623XXSP,2013-02-07 17:18:00,
2013-02-07 11:23:00,28.6,23.5,29.42,NE,45,0.0,0.0,81,0.00,,,0.00,WUHU21623XXSP,2013-02-07 17:23:00,
2013-02-07 11:28:00,28.8,23.6,29.42,NE,45,0.0,0.0,81,0.00,,,0.00,WUHU21623XXSP,2013-02-07 17:28:00,
2013-02-07 11:33:00,28.8,23.8,29.42,NE,45,0.0,0.0,81,0.00,,,0.00,WUHU21623XXSP,2013-02-07 17:33:00,
2013-02-07 11:38:00,28.9,23.8,29.42,NNE,22,0.0,0.0,81,0.00,,,0.00,WUHU21623XXSP,2013-02-07 17:38:00,
2013-02-07 11:43:00,28.9,23.5,29.42,NE,45,0.0,1.8,80,0.00,,,0.00,WUHU21623XXSP,2013-02-07 17:43:00,
2013-02-07 11:48:00,28.9,23.5,29.43,NNE,22,0.0,1.8,80,0.00,,,0.00,WUHU21623XXSP,2013-02-07 17:48:00,
2013-02-07 11:53:00,28.8,23.4,29.43,NNE,22,0.0,0.0,80,0.00,,,0.00,WUHU21623XXSP,2013-02-07 17:53:00,
2013-02-07 11:58:00,28.6,23.2,29.42,NNE,22,0.0,1.3,80,0.00,,,0.00,WUHU21623XXSP,2013-02-07 17:58:00,
2013-02-07 12:03:00,28.2,22.8,29.43,NNE,22,0.0,1.3,80,0.00,,,0.00,WUHU21623XXSP,2013-02-07 18:03:00,
2013-02-07 12:08:00,28.2,22.8,29.43,NNE,22,6.5,6.5,80,0.00,,,0.00,WUHU21623XXSP,2013-02-07 18:08:00,
2013-02-07 12:13:00,28.2,22.8,29.43,NE,45,0.0,6.5,80,0.00,,,0.00,WUHU21623XXSP,2013-02-07 18:13:00,
2013-02-07 12:18:00,28.4,22.8,29.43,NNE,22,0.0,0.0,80,0.00,,,0.00,WUHU21623XXSP,2013-02-07 18:18:00,
2013-02-07 12:23:00,28.6,23.2,29.42,NNE,22,1.8,1.8,80,0.00,,,0.00,WUHU21623XXSP,2013-02-07 18:23:00,
2013-02-07 12:28:00,28.6,23.2,29.42,NNE,22,2.2,4.3,80,0.00,,,0.00,WUHU21623XXSP,2013-02-07 18:28:00,
2013-02-07 12:33:00,28.2,22.8,29.43,WNW,292,0.0,4.3,80,0.00,,,0.00,WUHU21623XXSP,2013-02-07 18:33:00,
2013-02-07 12:38:00,28.2,22.8,29.42,NNE,22,5.4,5.4,80,0.00,,,0.00,WUHU21623XXSP,2013-02-07 18:38:00,
2013-02-07 12:43:00,28.2,22.8,29.42,NNE,22,0.0,5.4,80,0.00,,,0.00,WUHU21623XXSP,2013-02-07 18:43:00,
2013-02-07 12:48:00,28.2,22.8,29.42,NNE,22,0.0,5.4,80,0.00,,,0.00,WUHU21623XXSP,2013-02-07 18:48:00,
2013-02-07 12:53:00,28.0,22.6,29.42,NE,45,0.0,5.4,80,0.00,,,0.00,WUHU21623XXSP,2013-02-07 18:53:00,
2013-02-07 12:59:00,28.0,22.6,29.42,NNE,22,0.0,5.4,80,0.00,,,0.00,WUHU21623XXSP,2013-02-07 18:59:00,
2013-02-07 13:04:00,28.0,22.6,29.42,NNW,337,0.0,0.0,80,0.00,,,0.00,WUHU21623XXSP,2013-02-07 19:04:00,
2013-02-07 13:09:00,27.7,22.3,29.42,NNE,22,0.0,0.0,80,0.00,,,0.00,WUHU21623XXSP,2013-02-07 19:09:00,
2013-02-07 13:14:00,27.7,22.3,29.42,NNE,22,7.2,7.2,80,0.00,,,0.00,WUHU21623XXSP,2013-02-07 19:14:00,
2013-02-07 13:19:00,27.3,21.9,29.42,NNE,22,0.0,7.2,80,0.00,,,0.00,WUHU21623XXSP,2013-02-07 19:19:00,
2013-02-07 13:24:00,27.7,22.3,29.42,NNE,22,0.0,7.2,80,0.00,,,0.00,WUHU21623XXSP,2013-02-07 19:24:00,
2013-02-07 13:29:00,27.7,22.3,29.42,NNE,22,0.0,0.0,80,0.00,,,0.00,WUHU21623XXSP,2013-02-07 19:29:00,
2013-02-07 13:34:00,28.0,22.6,29.41,NNE,22,6.5,6.5,80,0.00,,,0.00,WUHU21623XXSP,2013-02-07 19:34:00,
2013-02-07 13:39:00,27.9,22.5,29.42,NNE,22,0.0,6.5,80,0.00,,,0.00,WUHU21623XXSP,2013-02-07 19:39:00,
2013-02-07 13:44:00,28.0,22.3,29.41,NE,45,0.0,4.5,79,0.00,,,0.00,WUHU21623XXSP,2013-02-07 19:44:00,
2013-02-07 13:49:00,28.0,22.3,29.42,NNE,22,0.0,0.0,79,0.00,,,0.00,WUHU21623XXSP,2013-02-07 19:49:00,
2013-02-07 13:54:00,28.2,22.5,29.41,NE,45,0.0,0.0,79,0.00,,,0.00,WUHU21623XXSP,2013-02-07 19:54:00,
2013-02-07 13:59:00,28.2,22.2,29.42,NNE,22,0.0,0.0,78,0.00,,,0.00,WUHU21623XXSP,2013-02-07 19:59:00,
2013-02-07 14:04:00,28.2,22.2,29.42,ENE,67,0.0,0.0,78,0.00,,,0.00,WUHU21623XXSP,2013-02-07 20:04:00,
2013-02-07 14:09:00,28.2,22.2,29.42,NE,45,0.0,4.9,78,0.00,,,0.00,WUHU21623XXSP,2013-02-07 20:09:00,
2013-02-07 14:14:00,28.2,22.2,29.42,NE,45,0.0,0.0,78,0.00,,,0.00,WUHU21623XXSP,2013-02-07 20:14:00,
2013-02-07 14:19:00,28.2,22.2,29.42,NE,45,2.0,2.0,77,0.00,,,0.00,WUHU21623XXSP,2013-02-07 20:19:00,
2013-02-07 14:24:00,28.0,21.7,29.42,NNE,22,0.0,2.0,78,0.00,,,0.00,WUHU21623XXSP,2013-02-07 20:24:00,
2013-02-07 14:29:00,28.0,22.0,29.42,NE,45,0.0,0.0,78,0.00,,,0.00,WUHU21623XXSP,2013-02-07 20:29:00,
2013-02-07 14:34:00,28.0,22.0,29.42,NNE,22,0.0,0.0,78,0.00,,,0.00,WUHU21623XXSP,2013-02-07 20:34:00,
2013-02-07 14:39:00,28.0,21.7,29.42,NNE,22,1.8,1.8,77,0.00,,,0.00,WUHU21623XXSP,2013-02-07 20:39:00,
2013-02-07 14:44:00,27.7,21.4,29.43,NE,45,0.0,4.7,77,0.00,,,0.00,WUHU21623XXSP,2013-02-07 20:44:00,
2013-02-07 14:49:00,27.7,21.7,29.43,NNE,22,0.0,4.7,78,0.00,,,0.00,WUHU21623XXSP,2013-02-07 20:49:00,
2013-02-07 14:54:00,27.5,21.5,29.43,NNE,22,0.0,0.0,78,0.00,,,0.00,WUHU21623XXSP,2013-02-07 20:54:00,
2013-02-07 15:00:00,27.5,21.5,29.43,NNE,22,0.0,1.8,78,0.00,,,0.00,WUHU21623XXSP,2013-02-07 21:00:00,
2013-02-07 15:05:00,27.3,21.3,29.43,NNE,22,0.0,1.8,78,0.00,,,0.00,WUHU21623XXSP,2013-02-07 21:05:00,
2013-02-07 15:10:00,27.3,21.6,29.43,NE,45,0.0,0.0,79,0.00,,,0.00,WUHU21623XXSP,2013-02-07 21:10:00,
2013-02-07 15:15:00,27.3,21.6,29.43,NE,45,0.0,0.0,79,0.00,,,0.00,WUHU21623XXSP,2013-02-07 21:15:00,
2013-02-07 15:20:00,27.3,21.6,29.44,North,0,0.0,0.0,79,0.00,,,0.00,WUHU21623XXSP,2013-02-07 21:20:00,
2013-02-07 15:25:00,27.1,21.4,29.44,NNE,22,0.0,0.0,79,0.00,,,0.00,WUHU21623XXSP,2013-02-07 21:25:00,
2013-02-07 15:30:00,27.1,21.4,29.44,NE,45,0.0,0.0,79,0.00,,,0.00,WUHU21623XXSP,2013-02-07 21:30:00,
2013-02-07 15:35:00,27.1,21.6,29.44,NNE,22,0.0,0.0,79,0.00,,,0.00,WUHU21623XXSP,2013-02-07 21:35:00,
2013-02-07 15:40:00,27.3,21.6,29.44,NNE,22,0.0,0.0,79,0.00,,,0.00,WUHU21623XXSP,2013-02-07 21:40:00,
2013-02-07 15:45:00,27.3,21.6,29.44,NNE,22,3.6,3.6,79,0.00,,,0.00,WUHU21623XXSP,2013-02-07 21:45:00,
2013-02-07 15:50:00,27.1,21.6,29.44,NNE,22,0.0,3.6,79,0.00,,,0.00,WUHU21623XXSP,2013-02-07 21:50:00,
2013-02-07 15:55:00,27.3,21.6,29.44,NNE,22,0.0,3.6,79,0.00,,,0.00,WUHU21623XXSP,2013-02-07 21:55:00,
2013-02-07 16:00:00,27.1,21.7,29.45,NNE,22,1.1,1.1,80,0.00,,,0.00,WUHU21623XXSP,2013-02-07 22:00:00,
2013-02-07 16:05:00,27.0,21.6,29.45,NNE,22,0.0,1.1,80,0.00,,,0.00,WUHU21623XXSP,2013-02-07 22:05:00,
2013-02-07 16:10:00,27.0,21.6,29.46,NNE,22,0.0,0.0,80,0.00,,,0.00,WUHU21623XXSP,2013-02-07 22:10:00,
2013-02-07 16:15:00,26.8,21.4,29.46,NNE,22,0.0,1.3,80,0.00,,,0.00,WUHU21623XXSP,2013-02-07 22:15:00,
2013-02-07 16:20:00,26.8,21.4,29.46,NNE,22,0.0,1.3,80,0.00,,,0.00,WUHU21623XXSP,2013-02-07 22:20:00,
2013-02-07 16:25:00,26.6,21.2,29.46,NNE,22,0.0,0.0,80,0.00,,,0.00,WUHU21623XXSP,2013-02-07 22:25:00,
2013-02-07 16:30:00,26.4,21.2,29.47,NNE,22,0.0,0.0,79,0.00,,,0.00,WUHU21623XXSP,2013-02-07 22:30:00,
2013-02-07 16:35:00,26.4,20.7,29.47,NNE,22,0.0,0.0,79,0.00,,,0.00,WUHU21623XXSP,2013-02-07 22:35:00,
2013-02-07 16:40:00,26.4,20.7,29.47,NE,45,0.0,0.0,79,0.00,,,0.00,WUHU21623XXSP,2013-02-07 22:40:00,
2013-02-07 16:45:00,26.4,20.7,29.47,NNE,22,0.0,0.0,79,0.00,,,0.00,WUHU21623XXSP,2013-02-07 22:45:00,
2013-02-07 16:50:00,26.4,20.7,29.47,NNE,22,0.0,0.0,79,0.00,,,0.00,WUHU21623XXSP,2013-02-07 22:50:00,
2013-02-07 16:56:00,26.4,20.7,29.47,NNE,22,1.6,6.7,79,0.00,,,0.00,WUHU21623XXSP,2013-02-07 22:56:00,
2013-02-07 17:01:00,26.2,20.6,29.47,NNE,22,3.4,6.7,79,0.00,,,0.00,WUHU21623XXSP,2013-02-07 23:01:00,
2013-02-07 17:06:00,26.2,20.6,29.48,NNE,22,0.0,3.4,79,0.00,,,0.00,WUHU21623XXSP,2013-02-07 23:06:00,
2013-02-07 17:11:00,26.2,20.6,29.48,NNE,22,1.1,3.4,79,0.00,,,0.00,WUHU21623XXSP,2013-02-07 23:11:00,
2013-02-07 17:16:00,26.2,20.6,29.48,NNE,22,0.0,3.4,79,0.00,,,0.00,WUHU21623XXSP,2013-02-07 23:16:00,
2013-02-07 17:21:00,26.1,20.4,29.48,NNE,22,1.1,1.1,79,0.00,,,0.00,WUHU21623XXSP,2013-02-07 23:21:00,
2013-02-07 17:26:00,26.1,20.4,29.48,NNE,22,2.7,2.7,79,0.00,,,0.00,WUHU21623XXSP,2013-02-07 23:26:00,
2013-02-07 17:31:00,26.1,20.4,29.48,NNE,22,0.0,2.7,79,0.00,,,0.00,WUHU21623XXSP,2013-02-07 23:31:00,
2013-02-07 17:36:00,26.2,20.6,29.48,NNE,22,0.0,0.0,79,0.00,,,0.00,WUHU21623XXSP,2013-02-07 23:36:00,
2013-02-07 17:41:00,26.1,20.4,29.49,NNE,22,0.0,0.0,79,0.00,,,0.00,WUHU21623XXSP,2013-02-07 23:41:00,
2013-02-07 17:46:00,26.1,20.4,29.49,NNE,22,1.6,1.6,79,0.00,,,0.00,WUHU21623XXSP,2013-02-07 23:46:00,
2013-02-07 17:51:00,26.1,20.4,29.49,NNE,22,0.0,1.6,79,0.00,,,0.00,WUHU21623XXSP,2013-02-07 23:51:00,
2013-02-07 17:56:00,26.2,20.6,29.50,NNE,22,0.0,0.0,79,0.00,,,0.00,WUHU21623XXSP,2013-02-07 23:56:00,
2013-02-07 18:01:00,26.2,20.2,29.50,NNE,22,0.0,0.0,78,0.00,,,0.00,WUHU21623XXSP,2013-02-08 00:01:00,
2013-02-07 18:06:00,26.2,20.2,29.49,NNE,22,0.0,0.0,78,0.00,,,0.00,WUHU21623XXSP,2013-02-08 00:06:00,
2013-02-07 18:11:00,26.2,20.2,29.50,NNE,22,0.0,0.0,78,0.00,,,0.00,WUHU21623XXSP,2013-02-08 00:11:00,
2013-02-07 18:16:00,26.2,20.2,29.50,NNE,22,0.0,0.0,78,0.00,,,0.00,WUHU21623XXSP,2013-02-08 00:16:00,
2013-02-07 18:21:00,26.2,20.2,29.50,NE,45,0.0,0.0,78,0.00,,,0.00,WUHU21623XXSP,2013-02-08 00:21:00,
2013-02-07 18:26:00,26.2,20.2,29.51,NNE,22,0.0,0.0,78,0.00,,,0.00,WUHU21623XXSP,2013-02-08 00:26:00,
2013-02-07 18:31:00,26.2,20.2,29.51,NNE,22,0.0,0.0,78,0.00,,,0.00,WUHU21623XXSP,2013-02-08 00:31:00,
2013-02-07 18:36:00,26.2,20.2,29.51,NNE,22,0.0,0.0,78,0.00,,,0.00,WUHU21623XXSP,2013-02-08 00:36:00,
2013-02-07 18:41:00,26.2,20.2,29.51,NNE,22,0.0,0.0,78,0.00,,,0.00,WUHU21623XXSP,2013-02-08 00:41:00,
2013-02-07 18:46:00,26.2,20.2,29.52,NNE,22,0.0,0.0,78,0.00,,,0.00,WUHU21623XXSP,2013-02-08 00:46:00,
2013-02-07 18:51:00,26.4,20.1,29.52,NNE,22,0.0,0.0,77,0.00,,,0.00,WUHU21623XXSP,2013-02-08 00:51:00,
2013-02-07 18:56:00,26.4,20.1,29.52,North,0,0.9,0.9,77,0.00,,,0.00,WUHU21623XXSP,2013-02-08 00:56:00,
2013-02-07 19:01:00,26.4,20.1,29.52,NNE,22,0.0,0.9,77,0.00,,,0.00,WUHU21623XXSP,2013-02-08 01:01:00,
2013-02-07 19:06:00,26.4,20.1,29.53,NNE,22,0.0,0.9,77,0.00,,,0.00,WUHU21623XXSP,2013-02-08 01:06:00,
2013-02-07 19:11:00,26.4,20.1,29.52,NNE,22,0.0,0.0,77,0.00,,,0.00,WUHU21623XXSP,2013-02-08 01:11:00,
2013-02-07 19:16:00,26.4,20.1,29.52,North,0,0.0,0.0,77,0.00,,,0.00,WUHU21623XXSP,2013-02-08 01:16:00,
2013-02-07 19:22:00,26.2,19.9,29.52,NNE,22,2.0,2.0,77,0.00,,,0.00,WUHU21623XXSP,2013-02-08 01:22:00,
2013-02-07 19:27:00,26.4,20.1,29.52,NE,45,0.0,3.4,77,0.00,,,0.00,WUHU21623XXSP,2013-02-08 01:27:00,
2013-02-07 19:32:00,26.4,20.1,29.52,NNE,22,0.0,3.4,77,0.00,,,0.00,WUHU21623XXSP,2013-02-08 01:32:00,
2013-02-07 19:37:00,26.2,19.9,29.53,North,0,3.4,5.1,77,0.00,,,0.00,WUHU21623XXSP,2013-02-08 01:37:00,
2013-02-07 19:42:00,26.2,19.9,29.52,NNE,22,0.0,5.1,77,0.00,,,0.00,WUHU21623XXSP,2013-02-08 01:42:00,
2013-02-07 19:47:00,26.2,19.9,29.53,NNE,22,1.1,1.1,77,0.00,,,0.00,WUHU21623XXSP,2013-02-08 01:47:00,
2013-02-07 19:52:00,26.2,19.9,29.53,NNE,22,0.0,1.1,77,0.00,,,0.00,WUHU21623XXSP,2013-02-08 01:52:00,
2013-02-07 19:57:00,26.2,19.9,29.53,NNE,22,0.0,2.2,77,0.00,,,0.00,WUHU21623XXSP,2013-02-08 01:57:00,
2013-02-07 20:02:00,26.2,19.9,29.53,NNE,22,5.1,5.1,77,0.00,,,0.00,WUHU21623XXSP,2013-02-08 02:02:00,
2013-02-07 20:07:00,26.1,19.8,29.53,NNE,22,0.0,5.1,77,0.00,,,0.00,WUHU21623XXSP,2013-02-08 02:07:00,
2013-02-07 20:12:00,26.1,19.8,29.53,NNE,22,0.0,0.0,77,0.00,,,0.00,WUHU21623XXSP,2013-02-08 02:12:00,
2013-02-07 20:17:00,25.9,19.8,29.53,NNE,22,0.0,0.0,77,0.00,,,0.00,WUHU21623XXSP,2013-02-08 02:17:00,
2013-02-07 20:22:00,25.9,19.6,29.53,NNE,22,0.0,1.8,77,0.00,,,0.00,WUHU21623XXSP,2013-02-08 02:22:00,
2013-02-07 20:27:00,25.9,19.6,29.54,NNE,22,0.0,0.9,77,0.00,,,0.00,WUHU21623XXSP,2013-02-08 02:27:00,
2013-02-07 20:32:00,25.9,19.6,29.54,NNE,22,0.7,0.9,77,0.00,,,0.00,WUHU21623XXSP,2013-02-08 02:32:00,
2013-02-07 20:37:00,25.9,19.6,29.54,NNE,22,0.0,0.7,77,0.00,,,0.00,WUHU21623XXSP,2013-02-08 02:37:00,
2013-02-07 20:42:00,25.9,19.6,29.54,NNE,22,0.0,0.0,77,0.00,,,0.00,WUHU21623XXSP,2013-02-08 02:42:00,
2013-02-07 20:47:00,25.7,19.4,29.54,NNE,22,0.0,0.0,77,0.00,,,0.00,WUHU21623XXSP,2013-02-08 02:47:00,
2013-02-07 20:52:00,25.7,19.4,29.54,NNE,22,0.0,0.0,77,0.00,,,0.00,WUHU21623XXSP,2013-02-08 02:52:00,
2013-02-07 20:57:00,25.5,19.3,29.54,NNE,22,0.0,0.0,77,0.00,,,0.00,WUHU21623XXSP,2013-02-08 02:57:00,
2013-02-07 21:02:00,25.5,19.3,29.55,NNE,22,0.0,0.0,77,0.00,,,0.00,WUHU21623XXSP,2013-02-08 03:02:00,
2013-02-07 21:07:00,25.5,19.3,29.54,NNE,22,0.0,0.0,77,0.00,,,0.00,WUHU21623XXSP,2013-02-08 03:07:00,
2013-02-07 21:12:00,25.5,19.3,29.55,NNE,22,0.0,0.0,77,0.00,,,0.00,WUHU21623XXSP,2013-02-08 03:12:00,
2013-02-07 21:17:00,25.5,19.3,29.55,NNE,22,0.0,0.0,77,0.00,,,0.00,WUHU21623XXSP,2013-02-08 03:17:00,
2013-02-07 21:22:00,25.5,19.3,29.55,NNE,22,0.0,0.0,77,0.00,,,0.00,WUHU21623XXSP,2013-02-08 03:22:00,
2013-02-07 21:27:00,25.5,19.3,29.55,NNE,22,0.0,0.0,77,0.00,,,0.00,WUHU21623XXSP,2013-02-08 03:27:00,
2013-02-07 21:32:00,25.5,19.3,29.55,NNE,22,0.0,0.0,77,0.00,,,0.00,WUHU21623XXSP,2013-02-08 03:32:00,
2013-02-07 21:37:00,25.5,19.3,29.56,NNE,22,0.0,0.0,77,0.00,,,0.00,WUHU21623XXSP,2013-02-08 03:37:00,
2013-02-07 21:42:00,25.5,19.3,29.56,NNE,22,0.0,0.0,77,0.00,,,0.00,WUHU21623XXSP,2013-02-08 03:42:00,
2013-02-07 21:47:00,25.5,19.3,29.56,NNE,22,0.0,0.0,77,0.00,,,0.00,WUHU21623XXSP,2013-02-08 03:47:00,
2013-02-07 21:53:00,25.5,19.3,29.56,NNE,22,0.0,0.0,77,0.00,,,0.00,WUHU21623XXSP,2013-02-08 03:53:00,
2013-02-07 21:58:00,25.5,19.3,29.56,NNE,22,0.0,0.0,77,0.00,,,0.00,WUHU21623XXSP,2013-02-08 03:58:00,
2013-02-07 22:03:00,25.5,19.3,29.56,NNE,22,0.0,0.0,77,0.00,,,0.00,WUHU21623XXSP,2013-02-08 04:03:00,
2013-02-07 22:08:00,25.5,19.6,29.56,NNE,22,0.0,0.0,77,0.00,,,0.00,WUHU21623XXSP,2013-02-08 04:08:00,
2013-02-07 22:13:00,25.7,19.4,29.56,NNE,22,0.0,0.0,77,0.00,,,0.00,WUHU21623XXSP,2013-02-08 04:13:00,
2013-02-07 22:18:00,25.5,19.3,29.56,NNE,22,0.0,0.0,77,0.00,,,0.00,WUHU21623XXSP,2013-02-08 04:18:00,
2013-02-07 22:23:00,25.7,19.8,29.56,WNW,292,0.0,0.0,78,0.00,,,0.00,WUHU21623XXSP,2013-02-08 04:23:00,
2013-02-07 22:28:00,25.7,19.8,29.56,NE,45,0.0,0.0,78,0.00,,,0.00,WUHU21623XXSP,2013-02-08 04:28:00,
2013-02-07 22:33:00,25.7,19.8,29.56,NE,45,0.0,0.0,78,0.00,,,0.00,WUHU21623XXSP,2013-02-08 04:33:00,
2013-02-07 22:38:00,25.7,19.8,29.56,NE,45,0.0,0.0,78,0.00,,,0.00,WUHU21623XXSP,2013-02-08 04:38:00,
2013-02-07 22:43:00,25.7,19.8,29.56,NE,45,0.0,0.0,78,0.00,,,0.00,WUHU21623XXSP,2013-02-08 04:43:00,
2013-02-07 22:48:00,25.7,19.8,29.56,NE,45,0.0,0.0,78,0.00,,,0.00,WUHU21623XXSP,2013-02-08 04:48:00,
2013-02-07 22:53:00,25.7,19.8,29.56,NE,45,0.0,0.0,78,0.00,,,0.00,WUHU21623XXSP,2013-02-08 04:53:00,
2013-02-07 22:58:00,25.5,19.8,29.57,NE,45,0.0,0.0,78,0.00,,,0.00,WUHU21623XXSP,2013-02-08 04:58:00,
2013-02-07 23:00:00,25.5,19.6,29.57,NE,45,0.0,0.0,78,0.00,,,0.00,WUHU21623XXSP,2013-02-08 05:00:00,
2013-02-07 23:05:00,25.5,19.6,29.57,NE,45,0.0,0.0,78,0.00,,,0.00,WUHU21623XXSP,2013-02-08 05:05:00,
2013-02-07 23:10:00,25.5,19.6,29.57,NE,45,0.0,0.0,78,0.00,,,0.00,WUHU21623XXSP,2013-02-08 05:10:00,
2013-02-07 23:15:00,25.5,19.6,29.58,NNE,22,0.0,2.2,78,0.00,,,0.00,WUHU21623XXSP,2013-02-08 05:15:00,
2013-02-07 23:21:00,25.5,19.6,29.58,NNE,22,0.0,2.2,78,0.00,,,0.00,WUHU21623XXSP,2013-02-08 05:21:00,
2013-02-07 23:26:00,25.5,19.6,29.58,NNE,22,1.3,1.6,78,0.00,,,0.00,WUHU21623XXSP,2013-02-08 05:26:00,
2013-02-07 23:31:00,25.5,19.6,29.58,NE,45,0.0,1.3,78,0.00,,,0.00,WUHU21623XXSP,2013-02-08 05:31:00,
2013-02-07 23:36:00,25.7,19.8,29.58,NE,45,0.0,0.0,78,0.00,,,0.00,WUHU21623XXSP,2013-02-08 05:36:00,
2013-02-07 23:41:00,25.7,19.8,29.58,NE,45,0.0,0.0,78,0.00,,,0.00,WUHU21623XXSP,2013-02-08 05:41:00,
2013-02-07 23:46:00,25.7,19.8,29.58,NE,45,0.0,0.0,78,0.00,,,0.00,WUHU21623XXSP,2013-02-08 05:46:00,
2013-02-07 23:51:00,25.5,19.6,29.58,NE,45,0.0,0.0,78,0.00,,,0.00,WUHU21623XXSP,2013-02-08 05:51:00,
2013-02-07 23:56:00,25.5,19.6,29.58,East,90,0.0,0.0,78,0.00,,,0.00,WUHU21623XXSP,2013-02-08 05:56:00,